sensor_id;sensor_type;location;lat;lon;timestamp;pressure;altitude;pressure_sealevel;temperature;humidity
70103;BME280;57470;50.034;15.256;2022-10-23T00:00:29;99772.81;;;9.63;100.00
70103;BME280;57470;50.034;15.256;2022-10-23T00:02:55;99777.50;;;9.88;100.00
70103;BME280;57470;50.034;15.256;2022-10-23T00:05:21;99777.06;;;10.10;100.00
70103;BME280;57470;50.034;15.256;2022-10-23T00:07:58;99788.22;;;9.72;100.00
70103;BME280;57470;50.034;15.256;2022-10-23T00:10:25;99782.09;;;9.56;100.00
70103;BME280;57470;50.034;15.256;2022-10-23T00:12:51;99780.97;;;9.60;100.00
70103;BME280;57470;50.034;15.256;2022-10-23T00:15:19;99785.69;;;9.99;100.00
70103;BME280;57470;50.034;15.256;2022-10-23T00:17:45;99783.69;;;10.03;100.00
70103;BME280;57470;50.034;15.256;2022-10-23T00:20:12;99775.41;;;9.65;100.00
70103;BME280;57470;50.034;15.256;2022-10-23T00:22:38;99780.38;;;9.99;100.00
70103;BME280;57470;50.034;15.256;2022-10-23T00:25:05;99778.94;;;9.94;100.00
70103;BME280;57470;50.034;15.256;2022-10-23T00:27:31;99776.66;;;9.73;100.00
70103;BME280;57470;50.034;15.256;2022-10-23T00:29:56;99774.63;;;9.63;100.00
70103;BME280;57470;50.034;15.256;2022-10-23T00:32:21;99772.19;;;9.44;100.00
70103;BME280;57470;50.034;15.256;2022-10-23T00:34:47;99768.53;;;9.31;100.00
70103;BME280;57470;50.034;15.256;2022-10-23T00:37:12;99763.28;;;9.45;100.00
70103;BME280;57470;50.034;15.256;2022-10-23T00:39:38;99753.16;;;9.22;100.00
70103;BME280;57470;50.034;15.256;2022-10-23T00:42:03;99758.03;;;8.68;100.00
70103;BME280;57470;50.034;15.256;2022-10-23T00:46:54;99755.13;;;8.88;100.00
70103;BME280;57470;50.034;15.256;2022-10-23T00:49:20;99766.47;;;9.06;100.00
70103;BME280;57470;50.034;15.256;2022-10-23T00:51:53;99767.53;;;9.03;100.00
70103;BME280;57470;50.034;15.256;2022-10-23T00:54:23;99765.41;;;8.94;100.00
70103;BME280;57470;50.034;15.256;2022-10-23T00:56:50;99768.34;;;9.20;100.00
70103;BME280;57470;50.034;15.256;2022-10-23T00:59:17;99766.66;;;9.03;100.00
70103;BME280;57470;50.034;15.256;2022-10-23T01:01:42;99760.09;;;9.54;100.00
70103;BME280;57470;50.034;15.256;2022-10-23T01:04:08;99770.16;;;9.63;100.00
70103;BME280;57470;50.034;15.256;2022-10-23T01:06:41;99766.19;;;9.70;100.00
70103;BME280;57470;50.034;15.256;2022-10-23T01:09:17;99759.72;;;9.00;100.00
70103;BME280;57470;50.034;15.256;2022-10-23T01:11:52;99763.28;;;8.85;100.00
70103;BME280;57470;50.034;15.256;2022-10-23T01:17:30;99751.28;;;8.94;100.00
70103;BME280;57470;50.034;15.256;2022-10-23T01:28:31;99765.41;;;8.47;100.00
70103;BME280;57470;50.034;15.256;2022-10-23T01:30:59;99764.38;;;8.81;100.00
70103;BME280;57470;50.034;15.256;2022-10-23T01:33:32;99763.56;;;8.95;100.00
70103;BME280;57470;50.034;15.256;2022-10-23T01:36:04;99766.97;;;8.67;100.00
70103;BME280;57470;50.034;15.256;2022-10-23T01:39:05;99758.19;;;8.96;100.00
70103;BME280;57470;50.034;15.256;2022-10-23T01:44:14;99756.50;;;8.80;100.00
70103;BME280;57470;50.034;15.256;2022-10-23T01:46:43;99760.00;;;8.80;100.00
70103;BME280;57470;50.034;15.256;2022-10-23T01:49:13;99760.41;;;8.88;100.00
70103;BME280;57470;50.034;15.256;2022-10-23T01:51:44;99761.56;;;8.53;100.00
70103;BME280;57470;50.034;15.256;2022-10-23T01:54:13;99759.22;;;8.78;100.00
70103;BME280;57470;50.034;15.256;2022-10-23T01:56:44;99759.59;;;8.56;100.00
70103;BME280;57470;50.034;15.256;2022-10-23T01:59:20;99769.41;;;8.86;100.00
70103;BME280;57470;50.034;15.256;2022-10-23T02:01:50;99764.94;;;8.86;100.00
70103;BME280;57470;50.034;15.256;2022-10-23T02:04:26;99772.50;;;8.94;100.00
70103;BME280;57470;50.034;15.256;2022-10-23T02:06:54;99766.25;;;8.63;100.00
70103;BME280;57470;50.034;15.256;2022-10-23T02:09:19;99769.19;;;8.75;100.00
70103;BME280;57470;50.034;15.256;2022-10-23T02:11:51;99758.81;;;8.54;100.00
70103;BME280;57470;50.034;15.256;2022-10-23T02:14:25;99768.75;;;8.67;100.00
70103;BME280;57470;50.034;15.256;2022-10-23T02:17:03;99765.72;;;8.88;100.00
70103;BME280;57470;50.034;15.256;2022-10-23T02:22:06;99770.38;;;9.15;100.00
70103;BME280;57470;50.034;15.256;2022-10-23T02:24:38;99764.22;;;9.14;100.00
70103;BME280;57470;50.034;15.256;2022-10-23T02:27:18;99768.75;;;9.28;100.00
70103;BME280;57470;50.034;15.256;2022-10-23T02:29:50;99760.00;;;9.26;100.00
70103;BME280;57470;50.034;15.256;2022-10-23T02:32:19;99765.88;;;9.31;100.00
70103;BME280;57470;50.034;15.256;2022-10-23T02:34:46;99760.94;;;9.25;100.00
70103;BME280;57470;50.034;15.256;2022-10-23T02:37:12;99765.25;;;9.27;100.00
70103;BME280;57470;50.034;15.256;2022-10-23T02:39:38;99763.59;;;9.25;100.00
70103;BME280;57470;50.034;15.256;2022-10-23T02:45:16;99750.59;;;8.90;100.00
70103;BME280;57470;50.034;15.256;2022-10-23T02:55:57;99757.28;;;8.66;100.00
70103;BME280;57470;50.034;15.256;2022-10-23T02:58:57;99767.91;;;8.66;100.00
70103;BME280;57470;50.034;15.256;2022-10-23T03:01:28;99758.66;;;8.73;100.00
70103;BME280;57470;50.034;15.256;2022-10-23T03:03:59;99765.59;;;8.27;100.00
70103;BME280;57470;50.034;15.256;2022-10-23T03:06:27;99756.13;;;7.90;100.00
70103;BME280;57470;50.034;15.256;2022-10-23T03:09:02;99768.91;;;8.15;100.00
70103;BME280;57470;50.034;15.256;2022-10-23T03:11:28;99769.25;;;8.24;100.00
70103;BME280;57470;50.034;15.256;2022-10-23T03:13:54;99766.22;;;8.32;100.00
70103;BME280;57470;50.034;15.256;2022-10-23T03:16:19;99763.00;;;8.43;100.00
70103;BME280;57470;50.034;15.256;2022-10-23T03:18:45;99762.41;;;8.38;100.00
70103;BME280;57470;50.034;15.256;2022-10-23T03:21:10;99763.44;;;8.02;100.00
70103;BME280;57470;50.034;15.256;2022-10-23T03:23:35;99762.50;;;8.03;100.00
70103;BME280;57470;50.034;15.256;2022-10-23T03:26:01;99762.44;;;8.20;100.00
70103;BME280;57470;50.034;15.256;2022-10-23T03:28:26;99769.09;;;8.12;100.00
70103;BME280;57470;50.034;15.256;2022-10-23T03:30:52;99769.00;;;8.13;100.00
70103;BME280;57470;50.034;15.256;2022-10-23T03:33:17;99767.00;;;8.01;100.00
70103;BME280;57470;50.034;15.256;2022-10-23T03:35:43;99773.53;;;8.11;100.00
70103;BME280;57470;50.034;15.256;2022-10-23T03:38:08;99766.56;;;7.93;100.00
70103;BME280;57470;50.034;15.256;2022-10-23T03:40:34;99765.06;;;7.87;100.00
70103;BME280;57470;50.034;15.256;2022-10-23T03:42:59;99762.16;;;7.76;100.00
70103;BME280;57470;50.034;15.256;2022-10-23T03:45:25;99761.16;;;7.62;100.00
70103;BME280;57470;50.034;15.256;2022-10-23T03:47:50;99763.88;;;7.77;100.00
70103;BME280;57470;50.034;15.256;2022-10-23T03:50:17;99743.72;;;7.75;100.00
70103;BME280;57470;50.034;15.256;2022-10-23T03:52:43;99750.41;;;7.65;100.00
70103;BME280;57470;50.034;15.256;2022-10-23T03:55:09;99751.00;;;7.70;100.00
70103;BME280;57470;50.034;15.256;2022-10-23T03:57:34;99752.44;;;7.77;100.00
70103;BME280;57470;50.034;15.256;2022-10-23T04:00:00;99742.91;;;7.73;100.00
70103;BME280;57470;50.034;15.256;2022-10-23T04:02:25;99732.03;;;7.62;100.00
70103;BME280;57470;50.034;15.256;2022-10-23T04:04:51;99734.84;;;7.59;100.00
70103;BME280;57470;50.034;15.256;2022-10-23T04:07:16;99735.72;;;7.59;100.00
70103;BME280;57470;50.034;15.256;2022-10-23T04:09:41;99732.69;;;7.49;100.00
70103;BME280;57470;50.034;15.256;2022-10-23T04:12:07;99729.16;;;7.66;100.00
70103;BME280;57470;50.034;15.256;2022-10-23T04:14:33;99740.41;;;7.87;100.00
70103;BME280;57470;50.034;15.256;2022-10-23T04:16:58;99750.06;;;7.71;100.00
70103;BME280;57470;50.034;15.256;2022-10-23T04:19:24;99749.84;;;7.75;100.00
70103;BME280;57470;50.034;15.256;2022-10-23T04:21:49;99749.22;;;7.70;100.00
70103;BME280;57470;50.034;15.256;2022-10-23T04:24:15;99745.78;;;7.85;100.00
70103;BME280;57470;50.034;15.256;2022-10-23T04:26:40;99756.41;;;8.01;100.00
70103;BME280;57470;50.034;15.256;2022-10-23T04:29:05;99759.84;;;8.03;100.00
70103;BME280;57470;50.034;15.256;2022-10-23T04:31:31;99756.16;;;7.73;100.00
70103;BME280;57470;50.034;15.256;2022-10-23T04:33:56;99765.34;;;7.83;100.00
70103;BME280;57470;50.034;15.256;2022-10-23T04:36:22;99768.16;;;8.13;100.00
70103;BME280;57470;50.034;15.256;2022-10-23T04:38:47;99758.91;;;8.04;100.00
70103;BME280;57470;50.034;15.256;2022-10-23T04:41:12;99759.94;;;8.17;100.00
70103;BME280;57470;50.034;15.256;2022-10-23T04:43:38;99760.47;;;8.24;100.00
70103;BME280;57470;50.034;15.256;2022-10-23T04:46:04;99758.06;;;8.19;100.00
70103;BME280;57470;50.034;15.256;2022-10-23T04:48:29;99756.22;;;8.21;100.00
70103;BME280;57470;50.034;15.256;2022-10-23T04:50:59;99756.03;;;8.24;100.00
70103;BME280;57470;50.034;15.256;2022-10-23T04:53:25;99756.88;;;8.25;100.00
70103;BME280;57470;50.034;15.256;2022-10-23T04:55:53;99759.38;;;8.28;100.00
70103;BME280;57470;50.034;15.256;2022-10-23T04:58:19;99757.13;;;8.20;99.71
70103;BME280;57470;50.034;15.256;2022-10-23T05:00:46;99754.81;;;8.14;99.79
70103;BME280;57470;50.034;15.256;2022-10-23T05:03:12;99753.78;;;8.17;99.31
70103;BME280;57470;50.034;15.256;2022-10-23T05:05:37;99751.41;;;8.12;99.03
70103;BME280;57470;50.034;15.256;2022-10-23T05:08:03;99755.59;;;8.16;99.73
70103;BME280;57470;50.034;15.256;2022-10-23T05:10:28;99760.44;;;8.08;100.00
70103;BME280;57470;50.034;15.256;2022-10-23T05:12:54;99752.41;;;8.10;100.00
70103;BME280;57470;50.034;15.256;2022-10-23T05:15:20;99761.31;;;8.09;100.00
70103;BME280;57470;50.034;15.256;2022-10-23T05:17:47;99755.59;;;8.16;100.00
70103;BME280;57470;50.034;15.256;2022-10-23T05:20:18;99748.03;;;7.93;100.00
70103;BME280;57470;50.034;15.256;2022-10-23T05:22:44;99756.78;;;8.11;100.00
70103;BME280;57470;50.034;15.256;2022-10-23T05:25:14;99761.22;;;8.10;100.00
70103;BME280;57470;50.034;15.256;2022-10-23T05:27:40;99757.19;;;8.03;100.00
70103;BME280;57470;50.034;15.256;2022-10-23T05:30:05;99761.44;;;8.06;100.00
70103;BME280;57470;50.034;15.256;2022-10-23T05:32:32;99752.13;;;7.99;100.00
70103;BME280;57470;50.034;15.256;2022-10-23T05:34:59;99754.25;;;7.92;100.00
70103;BME280;57470;50.034;15.256;2022-10-23T05:37:25;99756.50;;;8.00;99.97
70103;BME280;57470;50.034;15.256;2022-10-23T05:39:51;99752.97;;;7.99;100.00
70103;BME280;57470;50.034;15.256;2022-10-23T05:42:16;99748.81;;;7.95;99.85
70103;BME280;57470;50.034;15.256;2022-10-23T05:44:42;99749.47;;;7.99;99.90
70103;BME280;57470;50.034;15.256;2022-10-23T05:47:07;99751.13;;;8.01;99.66
70103;BME280;57470;50.034;15.256;2022-10-23T05:49:33;99755.56;;;8.01;99.40
70103;BME280;57470;50.034;15.256;2022-10-23T05:51:58;99755.69;;;7.82;100.00
70103;BME280;57470;50.034;15.256;2022-10-23T05:54:23;99748.66;;;7.81;100.00
70103;BME280;57470;50.034;15.256;2022-10-23T05:56:49;99747.31;;;7.89;100.00
70103;BME280;57470;50.034;15.256;2022-10-23T05:59:16;99759.00;;;8.03;100.00
70103;BME280;57470;50.034;15.256;2022-10-23T06:01:41;99753.44;;;8.07;100.00
70103;BME280;57470;50.034;15.256;2022-10-23T06:04:06;99744.38;;;7.96;100.00
70103;BME280;57470;50.034;15.256;2022-10-23T06:06:32;99744.03;;;7.69;100.00
70103;BME280;57470;50.034;15.256;2022-10-23T06:08:57;99743.66;;;7.59;100.00
70103;BME280;57470;50.034;15.256;2022-10-23T06:11:23;99752.34;;;7.61;100.00
70103;BME280;57470;50.034;15.256;2022-10-23T06:13:48;99755.16;;;7.75;100.00
70103;BME280;57470;50.034;15.256;2022-10-23T06:16:17;99761.31;;;7.76;100.00
70103;BME280;57470;50.034;15.256;2022-10-23T06:18:43;99767.56;;;7.90;100.00
70103;BME280;57470;50.034;15.256;2022-10-23T06:21:10;99774.59;;;7.91;100.00
70103;BME280;57470;50.034;15.256;2022-10-23T06:23:37;99766.81;;;8.21;100.00
70103;BME280;57470;50.034;15.256;2022-10-23T06:26:04;99771.47;;;8.16;100.00
70103;BME280;57470;50.034;15.256;2022-10-23T06:28:30;99770.19;;;8.23;100.00
70103;BME280;57470;50.034;15.256;2022-10-23T06:30:55;99768.22;;;8.60;100.00
70103;BME280;57470;50.034;15.256;2022-10-23T06:33:20;99772.16;;;8.53;100.00
70103;BME280;57470;50.034;15.256;2022-10-23T06:35:46;99773.78;;;8.55;100.00
70103;BME280;57470;50.034;15.256;2022-10-23T06:38:12;99771.63;;;9.39;100.00
70103;BME280;57470;50.034;15.256;2022-10-23T06:40:38;99767.94;;;10.00;100.00
70103;BME280;57470;50.034;15.256;2022-10-23T06:43:04;99766.13;;;9.86;100.00
70103;BME280;57470;50.034;15.256;2022-10-23T06:45:30;99763.88;;;10.23;100.00
70103;BME280;57470;50.034;15.256;2022-10-23T06:47:58;99758.59;;;11.44;99.11
70103;BME280;57470;50.034;15.256;2022-10-23T06:50:23;99771.88;;;11.32;94.79
70103;BME280;57470;50.034;15.256;2022-10-23T06:52:52;99783.47;;;11.70;95.96
70103;BME280;57470;50.034;15.256;2022-10-23T06:55:18;99789.50;;;13.58;87.59
70103;BME280;57470;50.034;15.256;2022-10-23T06:57:44;99793.50;;;14.32;85.08
70103;BME280;57470;50.034;15.256;2022-10-23T07:00:10;99798.06;;;14.76;80.62
70103;BME280;57470;50.034;15.256;2022-10-23T07:02:35;99795.84;;;13.44;85.90
70103;BME280;57470;50.034;15.256;2022-10-23T07:05:01;99793.97;;;11.98;91.03
70103;BME280;57470;50.034;15.256;2022-10-23T07:07:29;99791.72;;;12.18;92.96
70103;BME280;57470;50.034;15.256;2022-10-23T07:09:54;99801.56;;;10.99;97.36
70103;BME280;57470;50.034;15.256;2022-10-23T07:12:19;99805.91;;;10.73;99.84
70103;BME280;57470;50.034;15.256;2022-10-23T07:14:45;99796.34;;;10.97;100.00
70103;BME280;57470;50.034;15.256;2022-10-23T07:17:10;99806.69;;;10.61;100.00
70103;BME280;57470;50.034;15.256;2022-10-23T07:19:35;99802.97;;;11.04;100.00
70103;BME280;57470;50.034;15.256;2022-10-23T07:22:01;99803.03;;;10.90;100.00
70103;BME280;57470;50.034;15.256;2022-10-23T07:24:26;99809.88;;;10.80;100.00
70103;BME280;57470;50.034;15.256;2022-10-23T07:26:52;99810.25;;;10.88;100.00
70103;BME280;57470;50.034;15.256;2022-10-23T07:29:17;99819.16;;;12.07;100.00
70103;BME280;57470;50.034;15.256;2022-10-23T07:31:42;99812.63;;;11.98;97.90
70103;BME280;57470;50.034;15.256;2022-10-23T07:34:09;99809.44;;;11.54;99.45
70103;BME280;57470;50.034;15.256;2022-10-23T07:36:34;99818.53;;;11.37;100.00
70103;BME280;57470;50.034;15.256;2022-10-23T07:39:00;99810.69;;;11.48;100.00
70103;BME280;57470;50.034;15.256;2022-10-23T07:41:25;99810.69;;;11.48;100.00
70103;BME280;57470;50.034;15.256;2022-10-23T07:43:51;99807.25;;;11.46;100.00
70103;BME280;57470;50.034;15.256;2022-10-23T07:46:16;99799.28;;;11.46;100.00
70103;BME280;57470;50.034;15.256;2022-10-23T07:48:42;99798.66;;;11.16;100.00
70103;BME280;57470;50.034;15.256;2022-10-23T07:51:11;99800.78;;;11.90;100.00
70103;BME280;57470;50.034;15.256;2022-10-23T07:53:38;99788.41;;;12.01;99.58
70103;BME280;57470;50.034;15.256;2022-10-23T07:56:12;99797.78;;;12.20;98.97
70103;BME280;57470;50.034;15.256;2022-10-23T07:58:38;99789.78;;;11.94;100.00
70103;BME280;57470;50.034;15.256;2022-10-23T08:01:12;99792.25;;;12.23;98.24
70103;BME280;57470;50.034;15.256;2022-10-23T08:03:39;99788.72;;;11.84;99.19
70103;BME280;57470;50.034;15.256;2022-10-23T08:06:05;99784.03;;;11.75;100.00
70103;BME280;57470;50.034;15.256;2022-10-23T08:08:31;99775.59;;;11.81;100.00
70103;BME280;57470;50.034;15.256;2022-10-23T08:10:58;99778.91;;;11.33;100.00
70103;BME280;57470;50.034;15.256;2022-10-23T08:13:24;99776.03;;;11.75;100.00
70103;BME280;57470;50.034;15.256;2022-10-23T08:15:51;99780.94;;;11.94;100.00
70103;BME280;57470;50.034;15.256;2022-10-23T08:18:17;99772.22;;;11.79;99.91
70103;BME280;57470;50.034;15.256;2022-10-23T08:20:44;99779.69;;;12.25;99.99
70103;BME280;57470;50.034;15.256;2022-10-23T08:23:11;99776.78;;;12.40;98.79
70103;BME280;57470;50.034;15.256;2022-10-23T08:25:37;99782.91;;;12.66;99.86
70103;BME280;57470;50.034;15.256;2022-10-23T08:28:02;99778.72;;;12.99;98.15
70103;BME280;57470;50.034;15.256;2022-10-23T08:30:28;99776.19;;;12.61;98.80
70103;BME280;57470;50.034;15.256;2022-10-23T08:32:54;99787.38;;;12.66;98.41
70103;BME280;57470;50.034;15.256;2022-10-23T08:35:19;99780.22;;;12.66;99.70
70103;BME280;57470;50.034;15.256;2022-10-23T08:37:44;99777.66;;;12.65;97.77
70103;BME280;57470;50.034;15.256;2022-10-23T08:40:17;99779.22;;;12.80;97.54
70103;BME280;57470;50.034;15.256;2022-10-23T08:42:48;99780.16;;;12.92;96.88
70103;BME280;57470;50.034;15.256;2022-10-23T08:45:29;99772.59;;;13.09;96.58
70103;BME280;57470;50.034;15.256;2022-10-23T08:48:03;99773.66;;;12.83;97.38
70103;BME280;57470;50.034;15.256;2022-10-23T08:50:38;99775.69;;;13.16;97.76
70103;BME280;57470;50.034;15.256;2022-10-23T08:53:14;99783.88;;;13.49;96.88
70103;BME280;57470;50.034;15.256;2022-10-23T08:55:47;99785.75;;;13.36;98.62
70103;BME280;57470;50.034;15.256;2022-10-23T09:04:19;99773.75;;;13.88;96.05
70103;BME280;57470;50.034;15.256;2022-10-23T09:12:14;99768.81;;;14.06;96.72
70103;BME280;57470;50.034;15.256;2022-10-23T09:20:21;99768.34;;;14.68;95.03
70103;BME280;57470;50.034;15.256;2022-10-23T09:22:56;99778.34;;;14.54;95.04
70103;BME280;57470;50.034;15.256;2022-10-23T09:25:26;99779.41;;;14.30;95.27
70103;BME280;57470;50.034;15.256;2022-10-23T09:27:55;99771.66;;;14.49;94.26
70103;BME280;57470;50.034;15.256;2022-10-23T09:30:40;99761.19;;;14.46;94.28
70103;BME280;57470;50.034;15.256;2022-10-23T09:33:32;99761.88;;;14.25;96.19
70103;BME280;57470;50.034;15.256;2022-10-23T09:36:07;99755.91;;;14.89;94.94
70103;BME280;57470;50.034;15.256;2022-10-23T09:41:32;99755.16;;;14.98;93.98
70103;BME280;57470;50.034;15.256;2022-10-23T09:44:17;99751.56;;;15.20;93.17
70103;BME280;57470;50.034;15.256;2022-10-23T09:46:46;99737.59;;;15.37;92.75
70103;BME280;57470;50.034;15.256;2022-10-23T09:54:26;99727.66;;;15.28;92.85
70103;BME280;57470;50.034;15.256;2022-10-23T09:56:53;99731.69;;;15.54;92.86
70103;BME280;57470;50.034;15.256;2022-10-23T09:59:30;99734.22;;;15.24;93.37
70103;BME280;57470;50.034;15.256;2022-10-23T10:01:58;99726.38;;;15.32;92.79
70103;BME280;57470;50.034;15.256;2022-10-23T10:04:34;99720.53;;;16.00;93.43
70103;BME280;57470;50.034;15.256;2022-10-23T10:07:02;99717.31;;;15.55;92.11
70103;BME280;57470;50.034;15.256;2022-10-23T10:09:28;99725.84;;;15.91;92.06
70103;BME280;57470;50.034;15.256;2022-10-23T10:12:18;99728.72;;;15.99;91.21
70103;BME280;57470;50.034;15.256;2022-10-23T10:15:07;99735.06;;;15.98;90.51
70103;BME280;57470;50.034;15.256;2022-10-23T10:17:42;99734.41;;;16.05;89.99
70103;BME280;57470;50.034;15.256;2022-10-23T10:20:22;99730.72;;;16.06;89.99
70103;BME280;57470;50.034;15.256;2022-10-23T10:22:55;99729.72;;;16.38;90.21
70103;BME280;57470;50.034;15.256;2022-10-23T10:30:21;99734.66;;;16.33;89.11
70103;BME280;57470;50.034;15.256;2022-10-23T10:33:02;99736.09;;;16.06;90.91
70103;BME280;57470;50.034;15.256;2022-10-23T10:35:41;99724.34;;;16.68;89.57
70103;BME280;57470;50.034;15.256;2022-10-23T10:41:04;99713.69;;;16.57;88.52
70103;BME280;57470;50.034;15.256;2022-10-23T10:43:43;99711.50;;;16.72;88.81
70103;BME280;57470;50.034;15.256;2022-10-23T10:48:48;99703.31;;;16.64;88.15
70103;BME280;57470;50.034;15.256;2022-10-23T10:51:46;99704.44;;;16.71;88.30
70103;BME280;57470;50.034;15.256;2022-10-23T10:54:51;99708.13;;;16.79;88.54
70103;BME280;57470;50.034;15.256;2022-10-23T10:57:32;99706.16;;;17.49;87.41
70103;BME280;57470;50.034;15.256;2022-10-23T11:00:11;99693.56;;;17.01;88.60
70103;BME280;57470;50.034;15.256;2022-10-23T11:02:41;99691.47;;;17.24;87.84
70103;BME280;57470;50.034;15.256;2022-10-23T11:05:31;99686.22;;;17.03;87.92
70103;BME280;57470;50.034;15.256;2022-10-23T11:10:29;99678.16;;;17.42;87.19
70103;BME280;57470;50.034;15.256;2022-10-23T11:12:56;99672.91;;;17.40;86.60
70103;BME280;57470;50.034;15.256;2022-10-23T11:15:27;99667.72;;;16.91;88.06
70103;BME280;57470;50.034;15.256;2022-10-23T11:17:57;99662.56;;;17.65;86.99
70103;BME280;57470;50.034;15.256;2022-10-23T11:35:59;99612.69;;;17.80;85.53
70103;BME280;57470;50.034;15.256;2022-10-23T11:38:27;99614.22;;;17.26;87.19
70103;BME280;57470;50.034;15.256;2022-10-23T11:40:57;99613.00;;;17.57;86.32
70103;BME280;57470;50.034;15.256;2022-10-23T11:43:31;99619.09;;;17.69;86.37
70103;BME280;57470;50.034;15.256;2022-10-23T11:45:58;99614.53;;;17.79;86.04
70103;BME280;57470;50.034;15.256;2022-10-23T11:48:38;99601.91;;;17.89;85.12
70103;BME280;57470;50.034;15.256;2022-10-23T11:51:04;99603.16;;;17.85;84.48
70103;BME280;57470;50.034;15.256;2022-10-23T11:58:25;99593.50;;;17.92;85.56
70103;BME280;57470;50.034;15.256;2022-10-23T12:03:52;99590.53;;;17.49;84.99
70103;BME280;57470;50.034;15.256;2022-10-23T12:06:27;99581.13;;;17.99;85.07
70103;BME280;57470;50.034;15.256;2022-10-23T12:08:58;99572.38;;;17.70;84.98
70103;BME280;57470;50.034;15.256;2022-10-23T12:11:38;99570.94;;;17.76;85.63
70103;BME280;57470;50.034;15.256;2022-10-23T12:14:25;99567.47;;;18.11;86.29
70103;BME280;57470;50.034;15.256;2022-10-23T12:16:50;99551.97;;;18.22;84.78
70103;BME280;57470;50.034;15.256;2022-10-23T12:19:24;99552.22;;;18.47;83.57
70103;BME280;57470;50.034;15.256;2022-10-23T12:21:52;99547.56;;;18.04;84.83
70103;BME280;57470;50.034;15.256;2022-10-23T12:24:33;99545.34;;;18.17;84.78
70103;BME280;57470;50.034;15.256;2022-10-23T12:30:03;99554.78;;;18.48;83.50
70103;BME280;57470;50.034;15.256;2022-10-23T12:38:24;99542.50;;;19.07;81.80
70103;BME280;57470;50.034;15.256;2022-10-23T12:40:59;99540.06;;;19.73;80.50
70103;BME280;57470;50.034;15.256;2022-10-23T12:43:26;99543.09;;;19.19;81.94
70103;BME280;57470;50.034;15.256;2022-10-23T12:45:54;99541.03;;;18.69;82.36
70103;BME280;57470;50.034;15.256;2022-10-23T12:48:22;99549.53;;;19.00;81.83
70103;BME280;57470;50.034;15.256;2022-10-23T12:50:53;99539.84;;;19.15;82.65
70103;BME280;57470;50.034;15.256;2022-10-23T12:53:20;99532.09;;;19.12;81.15
70103;BME280;57470;50.034;15.256;2022-10-23T12:55:55;99514.66;;;19.50;80.97
70103;BME280;57470;50.034;15.256;2022-10-23T12:58:23;99512.47;;;19.54;81.25
70103;BME280;57470;50.034;15.256;2022-10-23T13:00:54;99506.72;;;19.48;81.54
70103;BME280;57470;50.034;15.256;2022-10-23T13:03:21;99508.88;;;19.19;81.15
70103;BME280;57470;50.034;15.256;2022-10-23T13:05:52;99500.94;;;18.92;82.52
70103;BME280;57470;50.034;15.256;2022-10-23T13:08:20;99491.84;;;19.19;82.25
70103;BME280;57470;50.034;15.256;2022-10-23T13:10:48;99484.34;;;19.30;82.97
70103;BME280;57470;50.034;15.256;2022-10-23T13:13:19;99487.56;;;19.08;83.23
70103;BME280;57470;50.034;15.256;2022-10-23T13:15:45;99472.09;;;19.10;83.17
70103;BME280;57470;50.034;15.256;2022-10-23T13:18:12;99473.91;;;19.01;84.09
70103;BME280;57470;50.034;15.256;2022-10-23T13:20:53;99467.13;;;18.97;84.07
70103;BME280;57470;50.034;15.256;2022-10-23T13:23:29;99472.03;;;19.02;83.94
70103;BME280;57470;50.034;15.256;2022-10-23T13:26:01;99463.25;;;18.74;84.49
70103;BME280;57470;50.034;15.256;2022-10-23T13:28:27;99456.13;;;18.91;84.91
70103;BME280;57470;50.034;15.256;2022-10-23T13:36:24;99443.53;;;18.73;85.33
70103;BME280;57470;50.034;15.256;2022-10-23T13:41:23;99444.78;;;19.05;83.83
70103;BME280;57470;50.034;15.256;2022-10-23T13:43:48;99443.00;;;19.22;83.33
70103;BME280;57470;50.034;15.256;2022-10-23T13:46:19;99451.94;;;19.22;82.84
70103;BME280;57470;50.034;15.256;2022-10-23T13:48:46;99453.09;;;19.20;82.57
70103;BME280;57470;50.034;15.256;2022-10-23T13:51:17;99451.56;;;19.17;83.49
70103;BME280;57470;50.034;15.256;2022-10-23T13:53:43;99440.50;;;19.28;83.35
70103;BME280;57470;50.034;15.256;2022-10-23T13:56:11;99441.66;;;19.52;82.29
70103;BME280;57470;50.034;15.256;2022-10-23T13:58:37;99442.13;;;19.47;82.27
70103;BME280;57470;50.034;15.256;2022-10-23T14:01:03;99452.53;;;19.42;82.09
70103;BME280;57470;50.034;15.256;2022-10-23T14:03:28;99453.19;;;19.36;81.54
70103;BME280;57470;50.034;15.256;2022-10-23T14:05:54;99454.97;;;19.53;81.70
70103;BME280;57470;50.034;15.256;2022-10-23T14:08:20;99459.56;;;19.61;81.32
70103;BME280;57470;50.034;15.256;2022-10-23T14:10:46;99455.88;;;19.36;80.60
70103;BME280;57470;50.034;15.256;2022-10-23T14:13:11;99461.38;;;19.52;80.61
70103;BME280;57470;50.034;15.256;2022-10-23T14:15:37;99453.03;;;19.71;79.46
70103;BME280;57470;50.034;15.256;2022-10-23T14:18:02;99456.53;;;19.64;79.40
70103;BME280;57470;50.034;15.256;2022-10-23T14:20:28;99460.00;;;19.14;79.76
70103;BME280;57470;50.034;15.256;2022-10-23T14:22:53;99452.53;;;19.08;77.70
70103;BME280;57470;50.034;15.256;2022-10-23T14:25:19;99450.25;;;19.21;76.77
70103;BME280;57470;50.034;15.256;2022-10-23T14:27:44;99452.88;;;19.05;77.76
70103;BME280;57470;50.034;15.256;2022-10-23T14:30:10;99452.91;;;19.13;77.57
70103;BME280;57470;50.034;15.256;2022-10-23T14:32:36;99440.00;;;19.33;76.64
70103;BME280;57470;50.034;15.256;2022-10-23T14:35:01;99443.81;;;19.14;76.63
70103;BME280;57470;50.034;15.256;2022-10-23T14:37:31;99442.75;;;19.07;76.93
70103;BME280;57470;50.034;15.256;2022-10-23T14:39:58;99441.91;;;18.81;78.07
70103;BME280;57470;50.034;15.256;2022-10-23T14:42:24;99442.00;;;18.97;77.95
70103;BME280;57470;50.034;15.256;2022-10-23T14:44:50;99428.81;;;18.86;77.39
70103;BME280;57470;50.034;15.256;2022-10-23T14:47:17;99426.63;;;18.89;78.81